No particular awareness of the weather is required.    There are no Weather-warnings


Meteo18 Weather Cam more information Meteo18 Weather Cam


Thunder radar more information blitzortung!


Rain radar more information rain snow radar


Visit our other weather sites:

Template documentation
and downloads

And another site



Weather Underground History page Text

Daily Summary for April 22, 2017 Units:  Metric    English   Both
« Previous Day
Next Day »
Daily Weekly Monthly Yearly Custom
  High: Low: Average:
Temperature: 17.8 °C 4.3 °C 11.6 °C
Dew Point: 6.5 °C -1.1 °C 3.1 °C
Humidity: 79 % 44 % 57 %
Wind Speed: 20.9 km/h 0.0 km/h 5 km/h
Wind Gust: 29.0 km/h - -
Wind:- - SSE
Pressure: 1029.3 hPa 1024.3 hPa -
Precipitation: 0.0 mm    
Historical Graphs
 
 
Tabular Data for April 22, 2017
Time Temperature Dew Point Pressure Wind Wind Speed Wind Gust Humidity Rainfall Rate (Hourly)
00:02 9.4 °C 0.0 °C 1029.3 hPa NNW 1.6 km/h 8.0 km/h 52 % 0.0 mm
00:07 9.3 °C -0.1 °C 1029.0 hPa NNW 3.2 km/h 8.0 km/h 52 % 0.0 mm
00:12 9.3 °C -0.1 °C 1029.3 hPa North 3.2 km/h 8.0 km/h 52 % 0.0 mm
00:17 9.3 °C -0.1 °C 1029.0 hPa North 4.8 km/h 8.0 km/h 52 % 0.0 mm
00:22 9.1 °C 0.0 °C 1029.0 hPa North 1.6 km/h 8.0 km/h 53 % 0.0 mm
00:27 8.9 °C -0.2 °C 1029.0 hPa North 1.6 km/h 8.0 km/h 53 % 0.0 mm
00:32 8.8 °C -0.3 °C 1029.0 hPa Calm   8.0 km/h 53 % 0.0 mm
00:37 8.8 °C 0.0 °C 1029.0 hPa Calm   8.0 km/h 54 % 0.0 mm
00:42 8.7 °C -0.1 °C 1029.0 hPa Calm   4.8 km/h 54 % 0.0 mm
00:52 8.4 °C -0.1 °C 1029.0 hPa Calm   4.8 km/h 55 % 0.0 mm
01:02 7.6 °C -0.1 °C 1029.0 hPa WNW 1.6 km/h 3.2 km/h 58 % 0.0 mm
01:12 7.8 °C -0.4 °C 1028.7 hPa NNW 1.6 km/h 3.2 km/h 56 % 0.0 mm
01:17 7.8 °C -0.4 °C 1028.7 hPa NNW 1.6 km/h 3.2 km/h 56 % 0.0 mm
01:22 7.8 °C -0.4 °C 1028.7 hPa Calm   3.2 km/h 56 % 0.0 mm
01:27 7.6 °C -0.4 °C 1028.7 hPa Calm   3.2 km/h 57 % 0.0 mm
01:32 7.2 °C -0.3 °C 1028.7 hPa Calm   3.2 km/h 59 % 0.0 mm
01:37 7.3 °C -0.4 °C 1028.7 hPa Calm     58 % 0.0 mm
01:42 7.7 °C -0.5 °C 1028.7 hPa Calm     56 % 0.0 mm
01:47 7.7 °C -0.5 °C 1028.7 hPa Calm     56 % 0.0 mm
01:52 7.3 °C -0.2 °C 1028.7 hPa Calm     59 % 0.0 mm
01:57 6.6 °C -0.4 °C 1028.7 hPa Calm     61 % 0.0 mm
02:02 6.7 °C -0.5 °C 1028.7 hPa Calm     60 % 0.0 mm
02:07 7.3 °C -0.7 °C 1028.7 hPa Calm     57 % 0.0 mm
02:12 7.2 °C -0.8 °C 1028.7 hPa Calm     57 % 0.0 mm
02:17 6.9 °C -0.8 °C 1028.7 hPa Calm     58 % 0.0 mm
02:22 6.9 °C -0.8 °C 1028.7 hPa Calm     58 % 0.0 mm
02:27 6.9 °C -0.8 °C 1028.3 hPa Calm     58 % 0.0 mm
02:32 6.8 °C -0.9 °C 1028.3 hPa Calm     58 % 0.0 mm
02:37 6.6 °C -0.8 °C 1028.3 hPa Calm     59 % 0.0 mm
02:42 6.7 °C -1.0 °C 1028.3 hPa NNW 1.6 km/h   58 % 0.0 mm
02:47 6.9 °C -1.0 °C 1028.3 hPa Calm   4.8 km/h 57 % 0.0 mm
02:52 6.9 °C -1.0 °C 1028.3 hPa Calm   4.8 km/h 57 % 0.0 mm
02:57 6.8 °C -0.9 °C 1028.3 hPa NW 3.2 km/h 3.2 km/h 58 % 0.0 mm
03:02 6.9 °C -1.0 °C 1028.3 hPa NW 1.6 km/h 3.2 km/h 57 % 0.0 mm
03:07 7.1 °C -0.8 °C 1028.0 hPa NW 1.6 km/h 3.2 km/h 57 % 0.0 mm
03:12 7.1 °C -0.8 °C 1028.0 hPa NW 3.2 km/h 3.2 km/h 57 % 0.0 mm
03:17 7.1 °C -0.8 °C 1028.0 hPa NW 1.6 km/h 3.2 km/h 57 % 0.0 mm
03:22 7.2 °C -1.0 °C 1028.0 hPa Calm   3.2 km/h 56 % 0.0 mm
03:27 7.2 °C -1.0 °C 1028.0 hPa NW 3.2 km/h 3.2 km/h 56 % 0.0 mm
03:32 7.1 °C -0.8 °C 1028.0 hPa NW 3.2 km/h 3.2 km/h 57 % 0.0 mm
03:37 7.1 °C -0.8 °C 1028.0 hPa NW 3.2 km/h 4.8 km/h 57 % 0.0 mm
03:42 7.0 °C -0.9 °C 1028.0 hPa NNW 3.2 km/h 4.8 km/h 57 % 0.0 mm
03:47 7.0 °C -0.9 °C 1028.0 hPa NNW 3.2 km/h 4.8 km/h 57 % 0.0 mm
03:52 6.9 °C -1.0 °C 1028.0 hPa NNW 1.6 km/h 4.8 km/h 57 % 0.0 mm
03:57 6.9 °C -1.0 °C 1028.0 hPa NNW 1.6 km/h 4.8 km/h 57 % 0.0 mm
04:02 6.8 °C -0.9 °C 1027.7 hPa NNW 1.6 km/h 4.8 km/h 58 % 0.0 mm
04:12 6.7 °C -1.0 °C 1027.7 hPa NNW 1.6 km/h 3.2 km/h 58 % 0.0 mm
04:17 6.8 °C -1.1 °C 1027.7 hPa NNW 1.6 km/h 3.2 km/h 57 % 0.0 mm
04:22 6.5 °C -0.9 °C 1027.7 hPa Calm   3.2 km/h 59 % 0.0 mm
04:32 6.1 °C -1.1 °C 1027.7 hPa NNW 1.6 km/h 3.2 km/h 60 % 0.0 mm
04:37 6.2 °C -1.0 °C 1027.7 hPa NNW 1.6 km/h 1.6 km/h 60 % 0.0 mm
04:42 6.2 °C -1.0 °C 1027.7 hPa Calm   1.6 km/h 60 % 0.0 mm
04:47 5.9 °C -1.0 °C 1027.7 hPa NNW 1.6 km/h 3.2 km/h 61 % 0.0 mm
04:52 5.8 °C -0.9 °C 1027.7 hPa NW 1.6 km/h 3.2 km/h 62 % 0.0 mm
05:02 5.9 °C -1.0 °C 1027.7 hPa NW 3.2 km/h 4.8 km/h 61 % 0.0 mm
05:12 5.8 °C -0.9 °C 1027.7 hPa NNW 1.6 km/h 4.8 km/h 62 % 0.0 mm
05:22 5.7 °C -0.8 °C 1027.7 hPa Calm   4.8 km/h 63 % 0.0 mm
05:27 5.5 °C -1.0 °C 1027.7 hPa NW 3.2 km/h 3.2 km/h 63 % 0.0 mm
05:32 5.3 °C -1.0 °C 1027.3 hPa NW 4.8 km/h 4.8 km/h 64 % 0.0 mm
05:37 5.2 °C -1.1 °C 1027.7 hPa NW 1.6 km/h 4.8 km/h 64 % 0.0 mm
05:42 5.1 °C -0.9 °C 1027.7 hPa NNW 4.8 km/h 4.8 km/h 65 % 0.0 mm
05:47 4.9 °C -0.9 °C 1027.7 hPa Calm   4.8 km/h 66 % 0.0 mm
05:52 4.7 °C -0.9 °C 1027.7 hPa NNW 1.6 km/h 4.8 km/h 67 % 0.0 mm
05:57 4.7 °C -0.9 °C 1027.7 hPa NNW 1.6 km/h 4.8 km/h 67 % 0.0 mm
06:02 4.8 °C -1.0 °C 1027.3 hPa NNW 1.6 km/h 4.8 km/h 66 % 0.0 mm
06:12 4.8 °C -0.8 °C 1027.3 hPa NW 1.6 km/h 3.2 km/h 67 % 0.0 mm
06:17 5.1 °C -0.9 °C 1027.3 hPa NNW 1.6 km/h 3.2 km/h 65 % 0.0 mm
06:22 4.8 °C -1.0 °C 1027.3 hPa NNW 1.6 km/h 3.2 km/h 66 % 0.0 mm
06:32 4.4 °C -0.8 °C 1027.3 hPa Calm   3.2 km/h 69 % 0.0 mm
06:37 4.3 °C -0.9 °C 1027.3 hPa NNW 3.2 km/h 3.2 km/h 69 % 0.0 mm
06:42 4.6 °C -0.8 °C 1027.3 hPa NNW 1.6 km/h 1.6 km/h 68 % 0.0 mm
06:52 4.7 °C -1.1 °C 1027.7 hPa North 4.8 km/h 4.8 km/h 66 % 0.0 mm
06:57 4.8 °C -1.0 °C 1027.7 hPa North 3.2 km/h 4.8 km/h 66 % 0.0 mm
07:02 4.9 °C -1.1 °C 1027.7 hPa North 1.6 km/h 4.8 km/h 65 % 0.0 mm
07:12 5.1 °C -0.9 °C 1027.7 hPa NNW 1.6 km/h 4.8 km/h 65 % 0.0 mm
07:22 5.1 °C -0.7 °C 1027.7 hPa NNW 1.6 km/h 3.2 km/h 66 % 0.0 mm
07:32 5.3 °C -0.7 °C 1027.7 hPa Calm   3.2 km/h 65 % 0.0 mm
07:42 5.7 °C -0.6 °C 1027.7 hPa Calm   3.2 km/h 64 % 0.0 mm
07:47 5.8 °C -0.3 °C 1027.7 hPa Calm   1.6 km/h 65 % 0.0 mm
07:52 5.6 °C -0.5 °C 1027.7 hPa Calm   1.6 km/h 65 % 0.0 mm
08:02 5.7 °C -0.2 °C 1027.7 hPa Calm   1.6 km/h 66 % 0.0 mm
08:12 6.3 °C 0.6 °C 1027.7 hPa Calm   1.6 km/h 67 % 0.0 mm
08:17 6.6 °C 1.1 °C 1027.7 hPa Calm     68 % 0.0 mm
08:22 7.2 °C 2.1 °C 1027.7 hPa Calm     70 % 0.0 mm
08:32 8.3 °C 1.9 °C 1027.7 hPa Calm     64 % 0.0 mm
08:42 9.2 °C 1.4 °C 1028.0 hPa Calm   3.2 km/h 58 % 0.0 mm
08:47 9.8 °C 1.4 °C 1028.0 hPa Calm   1.6 km/h 56 % 0.0 mm
08:52 10.0 °C 1.1 °C 1028.0 hPa North 3.2 km/h 3.2 km/h 54 % 0.0 mm
09:02 10.1 °C 1.7 °C 1028.0 hPa NNE 1.6 km/h 4.8 km/h 56 % 0.0 mm
09:12 10.7 °C 2.0 °C 1028.0 hPa NNE 1.6 km/h 4.8 km/h 55 % 0.0 mm
09:17 10.9 °C 1.7 °C 1028.0 hPa NNE 1.6 km/h 8.0 km/h 53 % 0.0 mm
09:22 11.1 °C 1.9 °C 1028.0 hPa Calm   8.0 km/h 53 % 0.0 mm
09:32 11.8 °C 2.0 °C 1028.0 hPa Calm   4.8 km/h 51 % 0.0 mm
09:42 11.9 °C 2.1 °C 1028.0 hPa North 1.6 km/h 4.8 km/h 51 % 0.0 mm
09:52 12.3 °C 3.0 °C 1028.0 hPa ENE 1.6 km/h 9.7 km/h 53 % 0.0 mm
10:02 12.7 °C 3.6 °C 1028.0 hPa ESE 3.2 km/h 9.7 km/h 54 % 0.0 mm
10:12 12.9 °C 3.3 °C 1027.7 hPa East 4.8 km/h 8.0 km/h 52 % 0.0 mm
10:22 12.8 °C 3.5 °C 1027.7 hPa Calm   6.4 km/h 53 % 0.0 mm
10:27 13.2 °C 4.1 °C 1027.7 hPa ENE 4.8 km/h 8.0 km/h 54 % 0.0 mm
10:32 13.2 °C 3.6 °C 1027.7 hPa ENE 3.2 km/h 8.0 km/h 52 % 0.0 mm
10:42 13.7 °C 4.3 °C 1027.7 hPa ESE 3.2 km/h 8.0 km/h 53 % 0.0 mm
10:52 14.0 °C 4.0 °C 1027.7 hPa ENE 8.0 km/h 8.0 km/h 51 % 0.0 mm
11:02 14.3 °C 4.0 °C 1027.7 hPa ENE 9.7 km/h 16.1 km/h 50 % 0.0 mm
11:12 14.6 °C 4.3 °C 1027.7 hPa ESE 1.6 km/h 14.5 km/h 50 % 0.0 mm
11:17 14.9 °C 4.9 °C 1027.7 hPa ENE 4.8 km/h 14.5 km/h 51 % 0.0 mm
11:22 15.1 °C 4.8 °C 1027.7 hPa NNE 8.0 km/h 14.5 km/h 50 % 0.0 mm
11:32 15.1 °C 4.8 °C 1027.7 hPa ENE 3.2 km/h 12.9 km/h 50 % 0.0 mm
11:42 15.3 °C 4.6 °C 1027.7 hPa ENE 8.0 km/h 12.9 km/h 49 % 0.0 mm
11:47 15.3 °C 4.9 °C 1027.3 hPa East 6.4 km/h 14.5 km/h 50 % 0.0 mm
11:52 15.3 °C 4.6 °C 1027.3 hPa ENE 3.2 km/h 14.5 km/h 49 % 0.0 mm
12:02 15.7 °C 5.6 °C 1027.3 hPa NE 6.4 km/h 14.5 km/h 51 % 0.0 mm
12:07 15.8 °C 4.8 °C 1027.3 hPa Calm   12.9 km/h 48 % 0.0 mm
12:12 16.1 °C 6.2 °C 1027.0 hPa ESE 6.4 km/h 12.9 km/h 52 % 0.0 mm
12:17 16.0 °C 5.3 °C 1027.0 hPa ENE 4.8 km/h 12.9 km/h 49 % 0.0 mm
12:22 16.0 °C 4.7 °C 1027.0 hPa NE 6.4 km/h 12.9 km/h 47 % 0.0 mm
12:32 16.3 °C 5.3 °C 1027.0 hPa NNE 12.9 km/h 17.7 km/h 48 % 0.0 mm
12:42 16.4 °C 5.1 °C 1027.0 hPa NNE 19.3 km/h 19.3 km/h 47 % 0.0 mm
12:52 16.1 °C 5.1 °C 1027.0 hPa NNE 3.2 km/h 17.7 km/h 48 % 0.0 mm
12:57 16.2 °C 4.3 °C 1027.0 hPa Calm   19.3 km/h 45 % 0.0 mm
13:02 16.5 °C 5.1 °C 1027.0 hPa East 4.8 km/h 19.3 km/h 47 % 0.0 mm
13:07 16.5 °C 4.8 °C 1026.6 hPa NE 3.2 km/h 22.5 km/h 46 % 0.0 mm
13:12 16.5 °C 4.5 °C 1026.6 hPa SSE 1.6 km/h 22.5 km/h 45 % 0.0 mm
13:17 16.6 °C 5.2 °C 1026.6 hPa ENE 12.9 km/h 22.5 km/h 47 % 0.0 mm
13:22 16.7 °C 5.9 °C 1026.6 hPa NNE 6.4 km/h 22.5 km/h 49 % 0.0 mm
13:27 16.8 °C 5.1 °C 1026.6 hPa ENE 6.4 km/h 17.7 km/h 46 % 0.0 mm
13:32 16.9 °C 4.9 °C 1026.3 hPa Calm   17.7 km/h 45 % 0.0 mm
13:37 17.2 °C 5.5 °C 1026.3 hPa East 4.8 km/h 14.5 km/h 46 % 0.0 mm
13:42 17.4 °C 6.0 °C 1026.3 hPa ENE 8.0 km/h 14.5 km/h 47 % 0.0 mm
13:47 17.2 °C 6.1 °C 1026.3 hPa NNE 3.2 km/h 16.1 km/h 48 % 0.0 mm
13:52 17.3 °C 6.2 °C 1026.3 hPa East 4.8 km/h 16.1 km/h 48 % 0.0 mm
13:57 17.5 °C 6.1 °C 1026.0 hPa NE 14.5 km/h 14.5 km/h 47 % 0.0 mm
14:02 17.3 °C 5.3 °C 1026.0 hPa NE 9.7 km/h 14.5 km/h 45 % 0.0 mm
14:12 17.1 °C 5.4 °C 1026.0 hPa NE 1.6 km/h 20.9 km/h 46 % 0.0 mm
14:17 17.1 °C 5.7 °C 1026.0 hPa North 8.0 km/h 22.5 km/h 47 % 0.0 mm
14:22 17.2 °C 6.1 °C 1026.0 hPa NE 14.5 km/h 22.5 km/h 48 % 0.0 mm
14:27 17.2 °C 6.4 °C 1026.0 hPa NNW 14.5 km/h 22.5 km/h 49 % 0.0 mm
14:32 17.4 °C 6.0 °C 1026.0 hPa NNE 20.9 km/h 22.5 km/h 47 % 0.0 mm
14:37 17.2 °C 5.5 °C 1025.6 hPa North 20.9 km/h 22.5 km/h 46 % 0.0 mm
14:42 17.1 °C 5.4 °C 1025.6 hPa NNE 4.8 km/h 22.5 km/h 46 % 0.0 mm
14:47 17.4 °C 6.3 °C 1025.6 hPa North 4.8 km/h 22.5 km/h 48 % 0.0 mm
14:57 17.4 °C 5.3 °C 1025.6 hPa WSW 4.8 km/h 14.5 km/h 45 % 0.0 mm
15:02 17.6 °C 5.8 °C 1025.6 hPa NNE 12.9 km/h 14.5 km/h 46 % 0.0 mm
15:12 17.3 °C 6.2 °C 1025.3 hPa North 12.9 km/h 24.1 km/h 48 % 0.0 mm
15:17 17.4 °C 5.7 °C 1025.3 hPa WNW 4.8 km/h 24.1 km/h 46 % 0.0 mm
15:22 17.6 °C 5.2 °C 1025.3 hPa NE 9.7 km/h 24.1 km/h 44 % 0.0 mm
15:32 17.5 °C 5.4 °C 1025.3 hPa NNW 3.2 km/h 25.7 km/h 45 % 0.0 mm
15:37 17.4 °C 5.3 °C 1025.3 hPa North 6.4 km/h 24.1 km/h 45 % 0.0 mm
15:42 17.4 °C 6.3 °C 1024.9 hPa NNW 6.4 km/h 24.1 km/h 48 % 0.0 mm
15:52 17.7 °C 5.6 °C 1024.9 hPa North 4.8 km/h 24.1 km/h 45 % 0.0 mm
15:57 17.8 °C 5.4 °C 1024.9 hPa NNE 3.2 km/h 20.9 km/h 44 % 0.0 mm
16:02 17.6 °C 5.8 °C 1024.9 hPa NE 12.9 km/h 20.9 km/h 46 % 0.0 mm
16:12 17.7 °C 5.9 °C 1024.9 hPa NE 9.7 km/h 22.5 km/h 46 % 0.0 mm
16:17 17.7 °C 6.5 °C 1024.9 hPa NE 17.7 km/h 22.5 km/h 48 % 0.0 mm
16:22 17.6 °C 5.8 °C 1024.6 hPa NE 12.9 km/h 22.5 km/h 46 % 0.0 mm
16:27 17.4 °C 5.7 °C 1024.6 hPa WNW 1.6 km/h 25.7 km/h 46 % 0.0 mm
16:32 17.6 °C 6.2 °C 1024.6 hPa NE 9.7 km/h 25.7 km/h 47 % 0.0 mm
16:37 17.4 °C 5.3 °C 1024.6 hPa North 4.8 km/h 25.7 km/h 45 % 0.0 mm
16:42 17.4 °C 6.3 °C 1024.3 hPa North 8.0 km/h 25.7 km/h 48 % 0.0 mm
16:47 17.2 °C 6.1 °C 1024.6 hPa NNE 8.0 km/h 24.1 km/h 48 % 0.0 mm
16:52 17.3 °C 5.9 °C 1024.6 hPa NW 12.9 km/h 24.1 km/h 47 % 0.0 mm
17:02 17.3 °C 6.2 °C 1024.3 hPa NNE 8.0 km/h 24.1 km/h 48 % 0.0 mm
17:12 16.9 °C 6.4 °C 1024.3 hPa North 14.5 km/h 22.5 km/h 50 % 0.0 mm
17:17 16.8 °C 6.0 °C 1024.3 hPa NNW 11.3 km/h 22.5 km/h 49 % 0.0 mm
17:22 16.8 °C 6.3 °C 1024.3 hPa NNE 6.4 km/h 22.5 km/h 50 % 0.0 mm
17:27 17.0 °C 6.2 °C 1024.3 hPa North 9.7 km/h 19.3 km/h 49 % 0.0 mm
17:32 16.7 °C 5.6 °C 1024.3 hPa NE 8.0 km/h 19.3 km/h 48 % 0.0 mm
17:37 16.5 °C 6.0 °C 1024.3 hPa NNW 9.7 km/h 17.7 km/h 50 % 0.0 mm
17:42 16.3 °C 5.9 °C 1024.3 hPa West 4.8 km/h 17.7 km/h 50 % 0.0 mm
17:47 16.3 °C 5.9 °C 1024.3 hPa NNE 11.3 km/h 24.1 km/h 50 % 0.0 mm
17:52 16.3 °C 5.9 °C 1024.3 hPa NNE 14.5 km/h 24.1 km/h 50 % 0.0 mm
17:57 16.2 °C 5.5 °C 1024.3 hPa North 9.7 km/h 20.9 km/h 49 % 0.0 mm
18:02 16.1 °C 5.7 °C 1024.3 hPa NNE 14.5 km/h 20.9 km/h 50 % 0.0 mm
18:12 15.9 °C 6.1 °C 1024.3 hPa NE 9.7 km/h 24.1 km/h 52 % 0.0 mm
18:17 16.1 °C 6.0 °C 1024.3 hPa North 8.0 km/h 29.0 km/h 51 % 0.0 mm
18:22 16.1 °C 5.7 °C 1024.3 hPa NNE 14.5 km/h 29.0 km/h 50 % 0.0 mm
18:32 15.8 °C 5.7 °C 1024.3 hPa NNE 11.3 km/h 24.1 km/h 51 % 0.0 mm
18:42 15.6 °C 5.5 °C 1024.3 hPa NNE 14.5 km/h 25.7 km/h 51 % 0.0 mm
18:52 15.4 °C 5.3 °C 1024.3 hPa North 9.7 km/h 22.5 km/h 51 % 0.0 mm
19:02 15.2 °C 5.4 °C 1024.3 hPa NE 20.9 km/h 20.9 km/h 52 % 0.0 mm
19:07 15.2 °C 5.4 °C 1024.3 hPa NNE 14.5 km/h 27.4 km/h 52 % 0.0 mm
19:12 15.2 °C 5.4 °C 1024.3 hPa NE 17.7 km/h 27.4 km/h 52 % 0.0 mm
19:17 15.1 °C 5.0 °C 1024.3 hPa WNW 11.3 km/h 24.1 km/h 51 % 0.0 mm
19:22 14.9 °C 5.1 °C 1024.3 hPa NNE 11.3 km/h 24.1 km/h 52 % 0.0 mm
19:32 14.8 °C 5.3 °C 1024.3 hPa North 8.0 km/h 22.5 km/h 53 % 0.0 mm
19:37 14.7 °C 5.2 °C 1024.3 hPa NE 4.8 km/h 24.1 km/h 53 % 0.0 mm
19:42 14.6 °C 5.1 °C 1024.3 hPa NE 11.3 km/h 24.1 km/h 53 % 0.0 mm
19:47 14.5 °C 5.6 °C 1024.3 hPa NNE 11.3 km/h 24.1 km/h 55 % 0.0 mm
19:52 14.4 °C 5.5 °C 1024.3 hPa NE 11.3 km/h 24.1 km/h 55 % 0.0 mm
19:57 14.3 °C 5.4 °C 1024.3 hPa ENE 6.4 km/h 24.1 km/h 55 % 0.0 mm
20:02 14.2 °C 5.5 °C 1024.3 hPa NNE 6.4 km/h 24.1 km/h 56 % 0.0 mm
20:12 13.9 °C 5.8 °C 1024.3 hPa North 11.3 km/h 20.9 km/h 58 % 0.0 mm
20:17 13.8 °C 5.9 °C 1024.3 hPa NNE 14.5 km/h 24.1 km/h 59 % 0.0 mm
20:22 13.5 °C 5.9 °C 1024.3 hPa NNE 9.7 km/h 24.1 km/h 60 % 0.0 mm
20:32 13.2 °C 6.1 °C 1024.3 hPa NE 14.5 km/h 24.1 km/h 62 % 0.0 mm
20:37 13.0 °C 5.9 °C 1024.3 hPa NE 6.4 km/h 19.3 km/h 62 % 0.0 mm
20:42 12.9 °C 6.0 °C 1024.3 hPa NNE 12.9 km/h 19.3 km/h 63 % 0.0 mm
20:47 12.7 °C 5.8 °C 1024.3 hPa NNE 11.3 km/h 17.7 km/h 63 % 0.0 mm
20:52 12.5 °C 5.9 °C 1024.3 hPa NNE 4.8 km/h 17.7 km/h 64 % 0.0 mm
21:02 12.1 °C 5.9 °C 1024.6 hPa North 8.0 km/h 16.1 km/h 66 % 0.0 mm
21:07 12.1 °C 5.9 °C 1024.6 hPa NE 4.8 km/h 14.5 km/h 66 % 0.0 mm
21:12 11.9 °C 6.0 °C 1024.6 hPa NW 4.8 km/h 14.5 km/h 67 % 0.0 mm
21:17 11.9 °C 6.0 °C 1024.6 hPa NNW 6.4 km/h 16.1 km/h 67 % 0.0 mm
21:22 11.8 °C 5.9 °C 1024.6 hPa NNW 3.2 km/h 16.1 km/h 67 % 0.0 mm
21:27 11.7 °C 5.8 °C 1024.6 hPa NE 6.4 km/h 16.1 km/h 67 % 0.0 mm
21:32 11.4 °C 5.7 °C 1024.6 hPa NNW 6.4 km/h 16.1 km/h 68 % 0.0 mm
21:42 11.2 °C 5.7 °C 1024.6 hPa NNW 6.4 km/h 12.9 km/h 69 % 0.0 mm
21:47 11.1 °C 5.8 °C 1024.6 hPa NNE 6.4 km/h 12.9 km/h 70 % 0.0 mm
21:57 10.9 °C 5.8 °C 1024.9 hPa Calm   12.9 km/h 71 % 0.0 mm
22:02 10.8 °C 5.8 °C 1024.9 hPa NNE 3.2 km/h 12.9 km/h 71 % 0.0 mm
22:07 10.7 °C 5.7 °C 1024.9 hPa North 3.2 km/h 8.0 km/h 71 % 0.0 mm
22:17 10.6 °C 5.8 °C 1024.9 hPa NNW 1.6 km/h 6.4 km/h 72 % 0.0 mm
22:22 10.5 °C 5.7 °C 1024.9 hPa NNW 1.6 km/h 6.4 km/h 72 % 0.0 mm
22:37 10.1 °C 5.7 °C 1024.9 hPa NNE 1.6 km/h 8.0 km/h 74 % 0.0 mm
22:42 10.1 °C 5.7 °C 1024.9 hPa North 3.2 km/h 8.0 km/h 74 % 0.0 mm
22:47 10.0 °C 5.8 °C 1024.9 hPa Calm   9.7 km/h 75 % 0.0 mm
22:52 9.9 °C 5.7 °C 1025.3 hPa NNE 8.0 km/h 9.7 km/h 75 % 0.0 mm
22:57 10.0 °C 5.8 °C 1025.3 hPa NE 1.6 km/h 14.5 km/h 75 % 0.0 mm
23:02 9.9 °C 5.9 °C 1025.3 hPa NE 3.2 km/h 14.5 km/h 76 % 0.0 mm
23:12 9.8 °C 5.8 °C 1025.3 hPa NE 9.7 km/h 11.3 km/h 76 % 0.0 mm
23:17 9.9 °C 5.9 °C 1025.3 hPa NNE 3.2 km/h 17.7 km/h 76 % 0.0 mm
23:22 9.8 °C 5.8 °C 1025.3 hPa NE 6.4 km/h 17.7 km/h 76 % 0.0 mm
23:32 10.1 °C 6.3 °C 1025.3 hPa NNE 9.7 km/h 17.7 km/h 77 % 0.0 mm
23:37 10.1 °C 6.4 °C 1025.6 hPa NNE 6.4 km/h 17.7 km/h 78 % 0.0 mm
23:42 10.0 °C 6.3 °C 1025.6 hPa NE 9.7 km/h 17.7 km/h 78 % 0.0 mm
23:52 9.7 °C 6.2 °C 1025.6 hPa NNE 4.8 km/h 17.7 km/h 79 % 0.0 mm
23:57 9.5 °C 6.0 °C 1025.6 hPa NNW 3.2 km/h 16.1 km/h 79 % 0.0 mm
Meteo18
Compliments of Weather Underground - 4 mb

Script developed by  Jim McMurry - jmcmurry@mwt.net Adapted for the template by  Wim van der Kuil - Leuven-Template.eu

You find our weather info also at:

European Weather Network

Weather Underground

Equipment we use:

Weather-station
Davis Vue

Weather-program
Meteohub

Weather-server
Raspberry PI 2 B+

Provider
1 and 1

Davis Vue

Meteohub

Raspberry PI 2 B+

1 and 1